sensor_id;sensor_type;location;lat;lon;timestamp;pressure;altitude;pressure_sealevel;temperature;humidity
56789;BME280;42657;51.650;17.780;2022-12-15T00:00:29;98846.82;;;-6.95;81.11
56789;BME280;42657;51.650;17.780;2022-12-15T00:03:51;98845.23;;;-6.91;81.22
56789;BME280;42657;51.650;17.780;2022-12-15T00:06:52;98843.55;;;-6.82;81.21
56789;BME280;42657;51.650;17.780;2022-12-15T00:09:54;98844.27;;;-6.75;81.14
56789;BME280;42657;51.650;17.780;2022-12-15T00:12:55;98845.30;;;-6.69;81.27
56789;BME280;42657;51.650;17.780;2022-12-15T00:15:57;98847.48;;;-6.60;81.18
56789;BME280;42657;51.650;17.780;2022-12-15T00:18:58;98848.79;;;-6.52;81.40
56789;BME280;42657;51.650;17.780;2022-12-15T00:22:00;98850.95;;;-6.45;81.43
56789;BME280;42657;51.650;17.780;2022-12-15T00:25:01;98848.47;;;-6.41;81.50
56789;BME280;42657;51.650;17.780;2022-12-15T00:28:02;98848.33;;;-6.35;81.32
56789;BME280;42657;51.650;17.780;2022-12-15T00:31:04;98851.05;;;-6.25;81.39
56789;BME280;42657;51.650;17.780;2022-12-15T00:34:05;98855.19;;;-6.12;81.42
56789;BME280;42657;51.650;17.780;2022-12-15T00:37:07;98857.19;;;-5.98;81.44
56789;BME280;42657;51.650;17.780;2022-12-15T00:40:09;98859.34;;;-5.88;81.41
56789;BME280;42657;51.650;17.780;2022-12-15T00:43:11;98858.51;;;-5.80;81.25
56789;BME280;42657;51.650;17.780;2022-12-15T00:46:12;98861.77;;;-5.72;81.39
56789;BME280;42657;51.650;17.780;2022-12-15T00:49:14;98863.39;;;-5.71;81.19
56789;BME280;42657;51.650;17.780;2022-12-15T00:52:17;98867.72;;;-5.67;81.31
56789;BME280;42657;51.650;17.780;2022-12-15T00:55:18;98874.38;;;-5.64;81.39
56789;BME280;42657;51.650;17.780;2022-12-15T00:58:20;98873.63;;;-5.61;81.34
56789;BME280;42657;51.650;17.780;2022-12-15T01:01:21;98879.16;;;-5.53;81.39
56789;BME280;42657;51.650;17.780;2022-12-15T01:04:23;98873.43;;;-5.45;81.27
56789;BME280;42657;51.650;17.780;2022-12-15T01:07:25;98875.23;;;-5.37;81.30
56789;BME280;42657;51.650;17.780;2022-12-15T01:10:26;98880.11;;;-5.31;81.24
56789;BME280;42657;51.650;17.780;2022-12-15T01:13:28;98881.79;;;-5.27;81.33
56789;BME280;42657;51.650;17.780;2022-12-15T01:16:29;98879.59;;;-5.25;81.25
56789;BME280;42657;51.650;17.780;2022-12-15T01:19:31;98877.61;;;-5.26;81.19
56789;BME280;42657;51.650;17.780;2022-12-15T01:22:32;98870.70;;;-5.26;81.13
56789;BME280;42657;51.650;17.780;2022-12-15T01:25:36;98872.02;;;-5.26;81.17
56789;BME280;42657;51.650;17.780;2022-12-15T01:28:38;98874.46;;;-5.25;81.09
56789;BME280;42657;51.650;17.780;2022-12-15T01:31:39;98879.69;;;-5.24;81.01
56789;BME280;42657;51.650;17.780;2022-12-15T01:34:41;98885.17;;;-5.25;80.95
56789;BME280;42657;51.650;17.780;2022-12-15T01:37:43;98887.89;;;-5.24;81.08
56789;BME280;42657;51.650;17.780;2022-12-15T01:40:50;98890.27;;;-5.25;81.01
56789;BME280;42657;51.650;17.780;2022-12-15T01:43:52;98889.67;;;-5.26;81.07
56789;BME280;42657;51.650;17.780;2022-12-15T01:46:54;98893.23;;;-5.26;81.07
56789;BME280;42657;51.650;17.780;2022-12-15T01:49:56;98892.61;;;-5.24;81.01
56789;BME280;42657;51.650;17.780;2022-12-15T01:52:58;98892.27;;;-5.22;80.96
56789;BME280;42657;51.650;17.780;2022-12-15T01:56:00;98888.57;;;-5.20;80.99
56789;BME280;42657;51.650;17.780;2022-12-15T01:59:04;98892.61;;;-5.20;81.01
56789;BME280;42657;51.650;17.780;2022-12-15T02:02:08;98900.48;;;-5.20;81.13
56789;BME280;42657;51.650;17.780;2022-12-15T02:05:10;98902.21;;;-5.21;81.08
56789;BME280;42657;51.650;17.780;2022-12-15T02:08:12;98906.75;;;-5.21;81.11
56789;BME280;42657;51.650;17.780;2022-12-15T02:12:06;98913.20;;;-5.18;81.16
56789;BME280;42657;51.650;17.780;2022-12-15T02:22:10;98915.96;;;-5.19;80.93
56789;BME280;42657;51.650;17.780;2022-12-15T02:25:42;98925.02;;;-5.23;80.98
56789;BME280;42657;51.650;17.780;2022-12-15T02:32:14;98931.60;;;-5.27;81.21
56789;BME280;42657;51.650;17.780;2022-12-15T02:35:25;98930.85;;;-5.25;81.13
56789;BME280;42657;51.650;17.780;2022-12-15T02:38:35;98939.08;;;-5.20;81.13
56789;BME280;42657;51.650;17.780;2022-12-15T02:41:41;98945.12;;;-5.17;81.12
56789;BME280;42657;51.650;17.780;2022-12-15T02:48:11;98955.62;;;-5.18;80.99
56789;BME280;42657;51.650;17.780;2022-12-15T02:51:46;98956.84;;;-5.21;81.08
56789;BME280;42657;51.650;17.780;2022-12-15T02:55:13;98957.13;;;-5.21;81.02
56789;BME280;42657;51.650;17.780;2022-12-15T02:58:27;98955.79;;;-5.18;81.01
56789;BME280;42657;51.650;17.780;2022-12-15T03:01:37;98956.02;;;-5.14;81.12
56789;BME280;42657;51.650;17.780;2022-12-15T03:05:16;98959.05;;;-5.13;80.91
56789;BME280;42657;51.650;17.780;2022-12-15T03:08:18;98958.77;;;-5.14;80.94
56789;BME280;42657;51.650;17.780;2022-12-15T03:11:19;98963.68;;;-5.16;80.94
56789;BME280;42657;51.650;17.780;2022-12-15T03:14:21;98965.14;;;-5.18;81.16
56789;BME280;42657;51.650;17.780;2022-12-15T03:17:23;98969.41;;;-5.17;81.20
56789;BME280;42657;51.650;17.780;2022-12-15T03:20:24;98972.95;;;-5.14;81.25
56789;BME280;42657;51.650;17.780;2022-12-15T03:23:26;98980.02;;;-5.10;81.27
56789;BME280;42657;51.650;17.780;2022-12-15T03:26:27;98981.05;;;-5.08;81.25
56789;BME280;42657;51.650;17.780;2022-12-15T03:29:29;98991.77;;;-5.08;81.14
56789;BME280;42657;51.650;17.780;2022-12-15T03:32:30;98995.81;;;-5.10;81.09
56789;BME280;42657;51.650;17.780;2022-12-15T03:35:32;99003.86;;;-5.10;81.29
56789;BME280;42657;51.650;17.780;2022-12-15T03:38:33;98997.77;;;-5.09;81.15
56789;BME280;42657;51.650;17.780;2022-12-15T03:41:35;98998.64;;;-5.08;81.22
56789;BME280;42657;51.650;17.780;2022-12-15T03:44:37;98997.54;;;-5.07;81.26
56789;BME280;42657;51.650;17.780;2022-12-15T03:47:41;99006.35;;;-5.07;81.30
56789;BME280;42657;51.650;17.780;2022-12-15T03:50:42;99016.26;;;-5.07;81.28
56789;BME280;42657;51.650;17.780;2022-12-15T03:53:44;99024.40;;;-5.05;81.23
56789;BME280;42657;51.650;17.780;2022-12-15T03:56:45;99027.38;;;-5.03;81.29
56789;BME280;42657;51.650;17.780;2022-12-15T03:59:47;99028.43;;;-5.03;81.26
56789;BME280;42657;51.650;17.780;2022-12-15T04:02:49;99025.62;;;-5.05;81.32
56789;BME280;42657;51.650;17.780;2022-12-15T04:05:50;99026.11;;;-5.04;81.49
56789;BME280;42657;51.650;17.780;2022-12-15T04:08:52;99027.95;;;-5.02;81.43
56789;BME280;42657;51.650;17.780;2022-12-15T04:11:53;99031.91;;;-5.02;81.45
56789;BME280;42657;51.650;17.780;2022-12-15T04:14:55;99036.39;;;-5.04;81.61
56789;BME280;42657;51.650;17.780;2022-12-15T04:17:56;99040.73;;;-5.05;81.41
56789;BME280;42657;51.650;17.780;2022-12-15T04:20:58;99044.45;;;-5.06;81.64
56789;BME280;42657;51.650;17.780;2022-12-15T04:23:59;99048.61;;;-5.02;81.67
56789;BME280;42657;51.650;17.780;2022-12-15T04:27:01;99055.92;;;-4.99;81.70
56789;BME280;42657;51.650;17.780;2022-12-15T04:30:02;99058.84;;;-4.98;81.75
56789;BME280;42657;51.650;17.780;2022-12-15T04:33:04;99061.17;;;-4.99;81.68
56789;BME280;42657;51.650;17.780;2022-12-15T04:36:09;99072.27;;;-4.98;81.81
56789;BME280;42657;51.650;17.780;2022-12-15T04:39:13;99080.43;;;-4.96;81.65
56789;BME280;42657;51.650;17.780;2022-12-15T04:42:15;99086.09;;;-4.93;81.77
56789;BME280;42657;51.650;17.780;2022-12-15T04:45:19;99087.27;;;-4.93;81.79
56789;BME280;42657;51.650;17.780;2022-12-15T04:48:21;99085.78;;;-4.92;81.69
56789;BME280;42657;51.650;17.780;2022-12-15T04:51:23;99092.08;;;-4.89;81.82
56789;BME280;42657;51.650;17.780;2022-12-15T04:54:24;99095.65;;;-4.88;81.73
56789;BME280;42657;51.650;17.780;2022-12-15T04:57:26;99107.61;;;-4.89;81.77
56789;BME280;42657;51.650;17.780;2022-12-15T05:00:27;99113.94;;;-4.90;81.65
56789;BME280;42657;51.650;17.780;2022-12-15T05:03:28;99115.19;;;-4.91;81.81
56789;BME280;42657;51.650;17.780;2022-12-15T05:06:30;99117.80;;;-4.89;81.71
56789;BME280;42657;51.650;17.780;2022-12-15T05:09:31;99116.08;;;-4.88;81.64
56789;BME280;42657;51.650;17.780;2022-12-15T05:12:33;99123.98;;;-4.89;81.65
56789;BME280;42657;51.650;17.780;2022-12-15T05:15:34;99122.13;;;-4.91;81.69
56789;BME280;42657;51.650;17.780;2022-12-15T05:18:36;99123.54;;;-4.92;81.63
56789;BME280;42657;51.650;17.780;2022-12-15T05:21:38;99119.59;;;-4.91;81.65
56789;BME280;42657;51.650;17.780;2022-12-15T05:24:39;99120.10;;;-4.92;81.46
56789;BME280;42657;51.650;17.780;2022-12-15T05:27:40;99129.38;;;-4.97;81.38
56789;BME280;42657;51.650;17.780;2022-12-15T05:30:42;99141.21;;;-4.99;81.36
56789;BME280;42657;51.650;17.780;2022-12-15T05:33:43;99142.84;;;-4.98;81.54
56789;BME280;42657;51.650;17.780;2022-12-15T05:36:45;99146.09;;;-5.00;81.49
56789;BME280;42657;51.650;17.780;2022-12-15T05:39:47;99149.36;;;-5.03;81.38
56789;BME280;42657;51.650;17.780;2022-12-15T05:42:48;99153.63;;;-5.05;81.38
56789;BME280;42657;51.650;17.780;2022-12-15T05:45:50;99165.17;;;-5.04;81.50
56789;BME280;42657;51.650;17.780;2022-12-15T05:48:51;99173.29;;;-5.05;81.43
56789;BME280;42657;51.650;17.780;2022-12-15T05:51:52;99170.52;;;-5.07;81.36
56789;BME280;42657;51.650;17.780;2022-12-15T05:54:54;99174.20;;;-5.08;81.47
56789;BME280;42657;51.650;17.780;2022-12-15T05:57:55;99184.34;;;-5.07;81.27
56789;BME280;42657;51.650;17.780;2022-12-15T06:04:04;99201.03;;;-5.07;81.28
56789;BME280;42657;51.650;17.780;2022-12-15T06:07:06;99205.05;;;-5.10;81.28
56789;BME280;42657;51.650;17.780;2022-12-15T06:10:08;99212.93;;;-5.10;81.27
56789;BME280;42657;51.650;17.780;2022-12-15T06:13:09;99216.44;;;-5.07;81.23
56789;BME280;42657;51.650;17.780;2022-12-15T06:16:13;99222.69;;;-5.05;81.25
56789;BME280;42657;51.650;17.780;2022-12-15T06:19:15;99228.70;;;-5.05;81.25
56789;BME280;42657;51.650;17.780;2022-12-15T06:22:17;99234.23;;;-5.06;81.32
56789;BME280;42657;51.650;17.780;2022-12-15T06:25:18;99240.04;;;-5.07;81.19
56789;BME280;42657;51.650;17.780;2022-12-15T06:28:20;99245.50;;;-5.04;81.25
56789;BME280;42657;51.650;17.780;2022-12-15T06:31:23;99250.95;;;-5.02;81.22
56789;BME280;42657;51.650;17.780;2022-12-15T06:34:25;99251.17;;;-5.03;80.99
56789;BME280;42657;51.650;17.780;2022-12-15T06:37:26;99256.61;;;-5.06;80.85
56789;BME280;42657;51.650;17.780;2022-12-15T06:40:28;99258.54;;;-5.07;80.89
56789;BME280;42657;51.650;17.780;2022-12-15T06:43:30;99255.79;;;-5.08;80.70
56789;BME280;42657;51.650;17.780;2022-12-15T06:46:33;99257.71;;;-5.09;80.78
56789;BME280;42657;51.650;17.780;2022-12-15T06:49:42;99265.27;;;-5.11;80.69
56789;BME280;42657;51.650;17.780;2022-12-15T06:52:44;99272.77;;;-5.11;80.71
56789;BME280;42657;51.650;17.780;2022-12-15T06:55:51;99283.13;;;-5.09;80.57
56789;BME280;42657;51.650;17.780;2022-12-15T06:58:53;99293.09;;;-5.08;80.47
56789;BME280;42657;51.650;17.780;2022-12-15T07:02:01;99295.45;;;-5.07;80.49
56789;BME280;42657;51.650;17.780;2022-12-15T07:05:03;99295.92;;;-5.07;80.58
56789;BME280;42657;51.650;17.780;2022-12-15T07:08:05;99298.69;;;-5.05;80.65
56789;BME280;42657;51.650;17.780;2022-12-15T07:11:08;99297.64;;;-4.99;80.53
56789;BME280;42657;51.650;17.780;2022-12-15T07:14:26;99303.61;;;-4.93;80.44
56789;BME280;42657;51.650;17.780;2022-12-15T07:17:27;99311.38;;;-4.90;80.27
56789;BME280;42657;51.650;17.780;2022-12-15T07:20:30;99323.34;;;-4.91;80.22
56789;BME280;42657;51.650;17.780;2022-12-15T07:23:32;99330.59;;;-4.93;80.02
56789;BME280;42657;51.650;17.780;2022-12-15T07:26:42;99333.02;;;-4.91;80.29
56789;BME280;42657;51.650;17.780;2022-12-15T07:29:44;99342.41;;;-4.86;80.12
56789;BME280;42657;51.650;17.780;2022-12-15T07:32:46;99344.41;;;-4.82;80.09
56789;BME280;42657;51.650;17.780;2022-12-15T07:35:53;99340.10;;;-4.78;80.14
56789;BME280;42657;51.650;17.780;2022-12-15T07:38:57;99350.09;;;-4.75;80.06
56789;BME280;42657;51.650;17.780;2022-12-15T07:41:59;99346.94;;;-4.72;79.96
56789;BME280;42657;51.650;17.780;2022-12-15T07:45:02;99349.54;;;-4.66;79.76
56789;BME280;42657;51.650;17.780;2022-12-15T07:48:04;99357.86;;;-4.61;79.89
56789;BME280;42657;51.650;17.780;2022-12-15T07:51:06;99357.95;;;-4.57;79.93
56789;BME280;42657;51.650;17.780;2022-12-15T07:54:09;99358.57;;;-4.56;79.91
56789;BME280;42657;51.650;17.780;2022-12-15T07:57:11;99361.10;;;-4.54;79.88
56789;BME280;42657;51.650;17.780;2022-12-15T08:00:14;99368.01;;;-4.47;79.79
56789;BME280;42657;51.650;17.780;2022-12-15T08:03:16;99376.14;;;-4.37;79.93
56789;BME280;42657;51.650;17.780;2022-12-15T08:06:17;99382.55;;;-4.30;79.82
56789;BME280;42657;51.650;17.780;2022-12-15T08:09:19;99382.96;;;-4.26;79.80
56789;BME280;42657;51.650;17.780;2022-12-15T08:12:20;99383.60;;;-4.20;79.70
56789;BME280;42657;51.650;17.780;2022-12-15T08:15:22;99388.20;;;-4.13;79.51
56789;BME280;42657;51.650;17.780;2022-12-15T08:18:23;99384.88;;;-4.03;79.42
56789;BME280;42657;51.650;17.780;2022-12-15T08:21:25;99386.96;;;-3.94;79.12
56789;BME280;42657;51.650;17.780;2022-12-15T08:24:26;99388.48;;;-3.92;78.85
56789;BME280;42657;51.650;17.780;2022-12-15T08:27:28;99387.11;;;-3.92;78.86
56789;BME280;42657;51.650;17.780;2022-12-15T08:30:29;99389.44;;;-3.91;78.78
56789;BME280;42657;51.650;17.780;2022-12-15T08:33:32;99397.39;;;-3.82;78.77
56789;BME280;42657;51.650;17.780;2022-12-15T08:36:34;99401.92;;;-3.69;78.74
56789;BME280;42657;51.650;17.780;2022-12-15T08:39:35;99410.89;;;-3.57;78.58
56789;BME280;42657;51.650;17.780;2022-12-15T08:42:37;99413.81;;;-3.48;78.34
56789;BME280;42657;51.650;17.780;2022-12-15T08:45:39;99418.60;;;-3.43;78.34
56789;BME280;42657;51.650;17.780;2022-12-15T08:48:41;99422.99;;;-3.38;78.21
56789;BME280;42657;51.650;17.780;2022-12-15T08:51:43;99429.81;;;-3.32;78.20
56789;BME280;42657;51.650;17.780;2022-12-15T08:54:44;99426.99;;;-3.23;78.07
56789;BME280;42657;51.650;17.780;2022-12-15T08:57:46;99434.76;;;-3.17;77.78
56789;BME280;42657;51.650;17.780;2022-12-15T09:00:47;99438.50;;;-3.07;77.84
56789;BME280;42657;51.650;17.780;2022-12-15T09:03:50;99438.13;;;-2.99;77.81
56789;BME280;42657;51.650;17.780;2022-12-15T09:06:52;99440.27;;;-2.95;77.66
56789;BME280;42657;51.650;17.780;2022-12-15T09:09:53;99446.92;;;-2.89;77.47
56789;BME280;42657;51.650;17.780;2022-12-15T09:12:55;99447.16;;;-2.80;77.65
56789;BME280;42657;51.650;17.780;2022-12-15T09:15:57;99452.20;;;-2.71;77.36
56789;BME280;42657;51.650;17.780;2022-12-15T09:18:59;99454.43;;;-2.61;77.27
56789;BME280;42657;51.650;17.780;2022-12-15T09:22:01;99453.84;;;-2.57;77.03
56789;BME280;42657;51.650;17.780;2022-12-15T09:25:03;99454.46;;;-2.56;77.07
56789;BME280;42657;51.650;17.780;2022-12-15T09:28:05;99458.24;;;-2.61;76.84
56789;BME280;42657;51.650;17.780;2022-12-15T09:31:09;99459.77;;;-2.65;76.93
56789;BME280;42657;51.650;17.780;2022-12-15T09:34:14;99458.23;;;-2.68;76.58
56789;BME280;42657;51.650;17.780;2022-12-15T09:37:16;99459.09;;;-2.71;76.55
56789;BME280;42657;51.650;17.780;2022-12-15T09:40:18;99467.05;;;-2.64;76.76
56789;BME280;42657;51.650;17.780;2022-12-15T09:43:23;99472.05;;;-2.55;76.58
56789;BME280;42657;51.650;17.780;2022-12-15T09:46:34;99474.91;;;-2.52;76.60
56789;BME280;42657;51.650;17.780;2022-12-15T09:50:00;99472.67;;;-2.47;76.72
56789;BME280;42657;51.650;17.780;2022-12-15T09:53:04;99473.78;;;-2.35;76.62
56789;BME280;42657;51.650;17.780;2022-12-15T09:56:20;99470.04;;;-2.24;76.62
56789;BME280;42657;51.650;17.780;2022-12-15T09:59:42;99468.16;;;-2.12;76.52
56789;BME280;42657;51.650;17.780;2022-12-15T10:07:05;99480.89;;;-2.01;76.35
56789;BME280;42657;51.650;17.780;2022-12-15T10:10:21;99477.77;;;-1.95;76.16
56789;BME280;42657;51.650;17.780;2022-12-15T10:13:55;99479.70;;;-1.81;76.17
56789;BME280;42657;51.650;17.780;2022-12-15T10:20:22;99485.35;;;-1.61;75.76
56789;BME280;42657;51.650;17.780;2022-12-15T10:23:25;99490.73;;;-1.55;75.58
56789;BME280;42657;51.650;17.780;2022-12-15T10:26:31;99490.64;;;-1.53;75.47
56789;BME280;42657;51.650;17.780;2022-12-15T10:29:45;99491.77;;;-1.55;75.30
56789;BME280;42657;51.650;17.780;2022-12-15T10:35:59;99491.27;;;-1.51;74.97
56789;BME280;42657;51.650;17.780;2022-12-15T10:39:01;99492.80;;;-1.48;75.10
56789;BME280;42657;51.650;17.780;2022-12-15T10:42:14;99491.27;;;-1.44;75.07
56789;BME280;42657;51.650;17.780;2022-12-15T10:45:37;99496.30;;;-1.42;74.89
56789;BME280;42657;51.650;17.780;2022-12-15T10:48:41;99494.39;;;-1.42;74.81
56789;BME280;42657;51.650;17.780;2022-12-15T10:54:54;99496.52;;;-1.44;74.42
56789;BME280;42657;51.650;17.780;2022-12-15T10:58:00;99501.64;;;-1.44;74.41
56789;BME280;42657;51.650;17.780;2022-12-15T11:01:11;99510.92;;;-1.46;73.65
56789;BME280;42657;51.650;17.780;2022-12-15T11:04:29;99516.44;;;-1.48;73.61
56789;BME280;42657;51.650;17.780;2022-12-15T11:07:38;99522.42;;;-1.53;73.29
56789;BME280;42657;51.650;17.780;2022-12-15T11:10:53;99527.05;;;-1.65;72.73
56789;BME280;42657;51.650;17.780;2022-12-15T11:14:11;99532.38;;;-1.78;72.80
56789;BME280;42657;51.650;17.780;2022-12-15T11:17:22;99536.25;;;-1.89;72.84
56789;BME280;42657;51.650;17.780;2022-12-15T11:20:29;99535.48;;;-1.97;72.89
56789;BME280;42657;51.650;17.780;2022-12-15T11:26:57;99542.70;;;-2.03;72.79
56789;BME280;42657;51.650;17.780;2022-12-15T11:30:18;99543.18;;;-2.04;72.11
56789;BME280;42657;51.650;17.780;2022-12-15T11:33:21;99549.74;;;-2.02;72.14
56789;BME280;42657;51.650;17.780;2022-12-15T11:36:53;99556.07;;;-1.98;72.08
56789;BME280;42657;51.650;17.780;2022-12-15T11:40:18;99561.43;;;-1.98;71.78
56789;BME280;42657;51.650;17.780;2022-12-15T11:50:53;99582.98;;;-2.00;71.31
56789;BME280;42657;51.650;17.780;2022-12-15T11:54:23;99584.84;;;-2.02;71.21
56789;BME280;42657;51.650;17.780;2022-12-15T11:57:50;99584.15;;;-2.02;71.28
56789;BME280;42657;51.650;17.780;2022-12-15T12:04:26;99571.20;;;-1.89;70.47
56789;BME280;42657;51.650;17.780;2022-12-15T12:07:39;99572.70;;;-1.93;70.10
56789;BME280;42657;51.650;17.780;2022-12-15T12:11:10;99578.59;;;-1.94;70.50
56789;BME280;42657;51.650;17.780;2022-12-15T12:14:30;99572.13;;;-1.95;70.92
56789;BME280;42657;51.650;17.780;2022-12-15T12:17:49;99570.23;;;-1.91;70.90
56789;BME280;42657;51.650;17.780;2022-12-15T12:20:59;99580.19;;;-1.87;70.87
56789;BME280;42657;51.650;17.780;2022-12-15T12:30:46;99581.41;;;-1.92;70.97
56789;BME280;42657;51.650;17.780;2022-12-15T12:33:51;99587.97;;;-1.85;71.05
56789;BME280;42657;51.650;17.780;2022-12-15T12:36:59;99590.58;;;-1.87;70.83
56789;BME280;42657;51.650;17.780;2022-12-15T12:40:04;99592.94;;;-1.93;70.82
56789;BME280;42657;51.650;17.780;2022-12-15T12:43:11;99592.80;;;-2.02;70.70
56789;BME280;42657;51.650;17.780;2022-12-15T12:46:30;99591.38;;;-2.07;70.97
56789;BME280;42657;51.650;17.780;2022-12-15T12:49:41;99587.91;;;-2.08;70.92
56789;BME280;42657;51.650;17.780;2022-12-15T12:56:45;99590.97;;;-2.12;70.63
56789;BME280;42657;51.650;17.780;2022-12-15T13:03:19;99589.00;;;-2.14;70.20
56789;BME280;42657;51.650;17.780;2022-12-15T13:09:43;99579.02;;;-2.13;70.32
56789;BME280;42657;51.650;17.780;2022-12-15T13:12:49;99581.13;;;-2.13;70.08
56789;BME280;42657;51.650;17.780;2022-12-15T13:16:01;99580.02;;;-2.14;70.05
56789;BME280;42657;51.650;17.780;2022-12-15T13:19:07;99589.77;;;-2.09;70.19
56789;BME280;42657;51.650;17.780;2022-12-15T13:22:33;99590.20;;;-1.95;70.35
56789;BME280;42657;51.650;17.780;2022-12-15T13:25:38;99586.41;;;-1.73;70.04
56789;BME280;42657;51.650;17.780;2022-12-15T13:28:43;99583.98;;;-1.53;69.62
56789;BME280;42657;51.650;17.780;2022-12-15T13:31:47;99584.42;;;-1.47;69.16
56789;BME280;42657;51.650;17.780;2022-12-15T13:34:49;99587.58;;;-1.60;68.89
56789;BME280;42657;51.650;17.780;2022-12-15T13:37:58;99589.71;;;-1.86;68.80
56789;BME280;42657;51.650;17.780;2022-12-15T13:41:00;99590.01;;;-2.10;69.10
56789;BME280;42657;51.650;17.780;2022-12-15T13:44:13;99594.89;;;-2.34;69.17
56789;BME280;42657;51.650;17.780;2022-12-15T13:47:24;99595.16;;;-2.64;69.35
56789;BME280;42657;51.650;17.780;2022-12-15T13:50:30;99591.61;;;-3.00;69.85
56789;BME280;42657;51.650;17.780;2022-12-15T13:53:39;99591.45;;;-3.34;70.04
56789;BME280;42657;51.650;17.780;2022-12-15T13:57:02;99590.11;;;-3.65;70.56
56789;BME280;42657;51.650;17.780;2022-12-15T14:00:13;99594.66;;;-3.96;70.79
56789;BME280;42657;51.650;17.780;2022-12-15T14:03:15;99599.11;;;-4.27;71.09
56789;BME280;42657;51.650;17.780;2022-12-15T14:06:16;99606.48;;;-4.51;71.35
56789;BME280;42657;51.650;17.780;2022-12-15T14:09:21;99610.61;;;-4.69;71.60
56789;BME280;42657;51.650;17.780;2022-12-15T14:12:24;99609.46;;;-4.82;71.87
56789;BME280;42657;51.650;17.780;2022-12-15T14:15:30;99614.33;;;-4.92;72.15
56789;BME280;42657;51.650;17.780;2022-12-15T14:18:35;99612.73;;;-5.03;72.33
56789;BME280;42657;51.650;17.780;2022-12-15T14:21:36;99604.13;;;-5.17;72.60
56789;BME280;42657;51.650;17.780;2022-12-15T14:24:43;99602.15;;;-5.33;73.12
56789;BME280;42657;51.650;17.780;2022-12-15T14:27:45;99607.59;;;-5.51;72.99
56789;BME280;42657;51.650;17.780;2022-12-15T14:30:47;99616.69;;;-5.68;73.50
56789;BME280;42657;51.650;17.780;2022-12-15T14:33:52;99620.79;;;-5.85;73.70
56789;BME280;42657;51.650;17.780;2022-12-15T14:37:02;99618.70;;;-6.01;73.96
56789;BME280;42657;51.650;17.780;2022-12-15T14:40:13;99624.91;;;-6.17;74.06
56789;BME280;42657;51.650;17.780;2022-12-15T14:43:21;99624.80;;;-6.31;74.15
56789;BME280;42657;51.650;17.780;2022-12-15T14:46:26;99637.15;;;-6.41;74.46
56789;BME280;42657;51.650;17.780;2022-12-15T14:49:31;99642.27;;;-6.48;74.73
56789;BME280;42657;51.650;17.780;2022-12-15T14:52:39;99650.60;;;-6.59;74.92
56789;BME280;42657;51.650;17.780;2022-12-15T14:55:42;99655.42;;;-6.68;75.28
56789;BME280;42657;51.650;17.780;2022-12-15T14:58:45;99661.09;;;-6.81;75.35
56789;BME280;42657;51.650;17.780;2022-12-15T15:01:58;99660.45;;;-6.95;75.47
56789;BME280;42657;51.650;17.780;2022-12-15T15:05:05;99665.92;;;-7.13;75.72
56789;BME280;42657;51.650;17.780;2022-12-15T15:08:45;99671.00;;;-7.30;75.84
56789;BME280;42657;51.650;17.780;2022-12-15T15:11:59;99678.83;;;-7.42;76.12
56789;BME280;42657;51.650;17.780;2022-12-15T15:15:04;99679.81;;;-7.52;76.22
56789;BME280;42657;51.650;17.780;2022-12-15T15:18:14;99684.09;;;-7.58;76.32
56789;BME280;42657;51.650;17.780;2022-12-15T15:21:20;99682.16;;;-7.64;76.58
56789;BME280;42657;51.650;17.780;2022-12-15T15:24:31;99680.56;;;-7.69;76.76
56789;BME280;42657;51.650;17.780;2022-12-15T15:27:37;99685.25;;;-7.72;76.85
56789;BME280;42657;51.650;17.780;2022-12-15T15:30:49;99697.09;;;-7.77;77.09
56789;BME280;42657;51.650;17.780;2022-12-15T15:33:52;99699.27;;;-7.83;77.17
56789;BME280;42657;51.650;17.780;2022-12-15T15:36:54;99695.85;;;-7.91;77.26
56789;BME280;42657;51.650;17.780;2022-12-15T15:39:55;99704.86;;;-8.01;77.21
56789;BME280;42657;51.650;17.780;2022-12-15T15:42:57;99705.76;;;-8.11;77.40
56789;BME280;42657;51.650;17.780;2022-12-15T15:46:08;99712.56;;;-8.18;77.50
56789;BME280;42657;51.650;17.780;2022-12-15T15:49:15;99710.77;;;-8.25;77.57
56789;BME280;42657;51.650;17.780;2022-12-15T15:52:17;99709.44;;;-8.29;77.62
56789;BME280;42657;51.650;17.780;2022-12-15T15:55:31;99712.21;;;-8.29;77.74
56789;BME280;42657;51.650;17.780;2022-12-15T15:58:34;99717.28;;;-8.29;77.82
56789;BME280;42657;51.650;17.780;2022-12-15T16:01:36;99725.59;;;-8.32;77.96
56789;BME280;42657;51.650;17.780;2022-12-15T16:04:39;99723.14;;;-8.35;78.08
56789;BME280;42657;51.650;17.780;2022-12-15T16:07:41;99724.56;;;-8.39;78.21
56789;BME280;42657;51.650;17.780;2022-12-15T16:10:46;99728.48;;;-8.47;78.16
56789;BME280;42657;51.650;17.780;2022-12-15T16:13:48;99728.45;;;-8.58;78.12
56789;BME280;42657;51.650;17.780;2022-12-15T16:16:49;99727.38;;;-8.69;78.23
56789;BME280;42657;51.650;17.780;2022-12-15T16:19:51;99726.10;;;-8.78;78.31
56789;BME280;42657;51.650;17.780;2022-12-15T16:22:56;99717.56;;;-8.85;78.20
56789;BME280;42657;51.650;17.780;2022-12-15T16:25:58;99709.25;;;-8.89;78.28
56789;BME280;42657;51.650;17.780;2022-12-15T16:29:00;99704.51;;;-8.91;78.35
56789;BME280;42657;51.650;17.780;2022-12-15T16:32:03;99705.21;;;-8.91;78.41
56789;BME280;42657;51.650;17.780;2022-12-15T16:35:06;99709.45;;;-8.88;78.56
56789;BME280;42657;51.650;17.780;2022-12-15T16:38:14;99702.67;;;-8.82;78.56
56789;BME280;42657;51.650;17.780;2022-12-15T16:41:17;99688.83;;;-8.81;78.17
56789;BME280;42657;51.650;17.780;2022-12-15T16:44:19;99689.98;;;-8.82;78.17
56789;BME280;42657;51.650;17.780;2022-12-15T16:47:21;99693.17;;;-8.83;77.98
56789;BME280;42657;51.650;17.780;2022-12-15T16:50:32;99695.66;;;-8.83;77.82
56789;BME280;42657;51.650;17.780;2022-12-15T16:53:39;99696.17;;;-8.85;77.91
56789;BME280;42657;51.650;17.780;2022-12-15T16:56:43;99697.02;;;-8.85;77.93
56789;BME280;42657;51.650;17.780;2022-12-15T16:59:45;99698.77;;;-8.87;77.80
56789;BME280;42657;51.650;17.780;2022-12-15T17:02:47;99705.88;;;-8.96;77.74
56789;BME280;42657;51.650;17.780;2022-12-15T17:05:51;99714.20;;;-9.09;77.75
56789;BME280;42657;51.650;17.780;2022-12-15T17:08:53;99716.72;;;-9.21;77.93
56789;BME280;42657;51.650;17.780;2022-12-15T17:11:57;99721.70;;;-9.34;78.07